Time;durP1;ratioP1;P1;durP2;ratioP2;P2;SDS_P1;SDS_P2;PMS_P1;PMS_P2;Temp;Humidity;BMP_temperature;BMP_pressure;BME280_temperature;BME280_humidity;BME280_pressure;Samples;Min_cycle;Max_cycle;Signal;HPM_P1;HPM_P2
2022/01/09 00:00:26;;;;;;;1.95;0.65;;;5.50;99.90;;;;;;5037652;28;20489;-75
2022/01/09 00:02:52;;;;;;;0.70;0.60;;;5.60;99.90;;;;;;5033115;28;20036;-73
2022/01/09 00:05:18;;;;;;;0.65;0.43;;;5.60;99.90;;;;;;5034063;28;20619;-73
2022/01/09 00:07:44;;;;;;;2.08;0.50;;;5.60;99.90;;;;;;5034602;28;20033;-73
2022/01/09 00:10:10;;;;;;;1.02;0.55;;;5.60;99.90;;;;;;5036930;28;20025;-73
2022/01/09 00:12:36;;;;;;;1.95;1.50;;;5.60;99.90;;;;;;5036379;28;20049;-74
2022/01/09 00:15:03;;;;;;;0.30;0.30;;;5.70;99.90;;;;;;5035285;28;20380;-73
2022/01/09 00:17:29;;;;;;;0.75;0.50;;;5.60;99.90;;;;;;5035076;28;20085;-75
2022/01/09 00:19:55;;;;;;;0.40;0.40;;;5.60;99.90;;;;;;5034950;28;20057;-72
2022/01/09 00:22:31;;;;;;;0.30;0.22;;;5.60;99.90;;;;;;5034761;28;20041;-73
2022/01/09 00:24:57;;;;;;;0.38;0.38;;;5.60;99.90;;;;;;5034374;28;20057;-74
2022/01/09 00:27:22;;;;;;;0.40;0.40;;;5.50;99.90;;;;;;5033755;28;20026;-73
2022/01/09 00:29:48;;;;;;;0.30;0.30;;;5.50;99.90;;;;;;5048300;28;20041;-74
2022/01/09 00:32:14;;;;;;;0.60;0.52;;;5.50;99.90;;;;;;5055807;28;20009;-73
2022/01/09 00:34:39;;;;;;;0.20;0.20;;;5.50;99.90;;;;;;5055829;28;20013;-74
2022/01/09 00:37:05;;;;;;;0.50;0.40;;;5.50;99.90;;;;;;5055397;28;20060;-72
2022/01/09 00:39:30;;;;;;;0.43;0.43;;;5.50;99.90;;;;;;5049174;28;20108;-73
2022/01/09 00:41:56;;;;;;;0.55;0.38;;;5.40;99.90;;;;;;5045049;28;20037;-73
2022/01/09 00:44:21;;;;;;;0.55;0.55;;;5.50;99.90;;;;;;5041408;28;20038;-73
2022/01/09 00:46:47;;;;;;;0.70;0.45;;;5.50;99.90;;;;;;5041222;28;20485;-73
2022/01/09 00:49:12;;;;;;;0.28;0.28;;;5.50;99.90;;;;;;5036712;28;20025;-73
2022/01/09 00:51:38;;;;;;;0.20;0.20;;;5.50;99.90;;;;;;5034797;28;20363;-73
2022/01/09 00:54:03;;;;;;;0.40;0.40;;;5.50;99.90;;;;;;5035166;28;20393;-74
2022/01/09 00:56:29;;;;;;;0.50;0.30;;;5.40;99.90;;;;;;5035360;28;20511;-73
2022/01/09 00:58:55;;;;;;;0.32;0.25;;;5.60;99.90;;;;;;5036903;28;20348;-75
2022/01/09 01:01:20;;;;;;;0.30;0.30;;;5.50;99.90;;;;;;5034985;28;20040;-74
2022/01/09 01:03:46;;;;;;;0.30;0.30;;;5.50;99.90;;;;;;5036780;28;20040;-74
2022/01/09 01:06:13;;;;;;;1.17;0.25;;;5.40;99.90;;;;;;5037666;28;20021;-73
2022/01/09 01:08:38;;;;;;;0.22;0.20;;;5.40;99.90;;;;;;5037559;28;20025;-73
2022/01/09 01:11:04;;;;;;;0.30;0.30;;;5.40;99.90;;;;;;5037451;28;20048;-73
2022/01/09 01:13:30;;;;;;;0.20;0.20;;;5.40;99.90;;;;;;5037289;28;20029;-73
2022/01/09 01:15:56;;;;;;;0.20;0.20;;;5.60;99.90;;;;;;5035712;28;20061;-73
2022/01/09 01:18:22;;;;;;;0.68;0.38;;;5.60;99.90;;;;;;5037101;28;20055;-73
2022/01/09 01:20:48;;;;;;;0.55;0.25;;;5.60;99.90;;;;;;5037125;28;20021;-73
2022/01/09 01:23:13;;;;;;;0.20;0.20;;;5.50;99.90;;;;;;5037217;28;20300;-74
2022/01/09 01:25:40;;;;;;;0.30;0.30;;;5.60;99.90;;;;;;5036714;28;20485;-73
2022/01/09 01:28:06;;;;;;;0.30;0.30;;;5.60;99.90;;;;;;5036235;28;20025;-72
2022/01/09 01:30:31;;;;;;;0.30;0.30;;;5.70;99.90;;;;;;5036332;28;20122;-73
2022/01/09 01:32:57;;;;;;;0.20;0.20;;;5.60;99.90;;;;;;5037395;28;20075;-74
2022/01/09 01:35:23;;;;;;;0.63;0.30;;;5.60;99.90;;;;;;5037657;28;20455;-73
2022/01/09 01:37:48;;;;;;;0.20;0.20;;;5.50;99.90;;;;;;5036916;28;20040;-74
2022/01/09 01:40:17;;;;;;;1.65;0.25;;;5.50;99.90;;;;;;5036751;28;20039;-73
2022/01/09 01:42:44;;;;;;;0.30;0.30;;;5.50;99.90;;;;;;5036650;28;20018;-74
2022/01/09 01:45:11;;;;;;;0.30;0.30;;;5.60;99.90;;;;;;5037028;28;20022;-73
2022/01/09 01:47:37;;;;;;;0.30;0.30;;;5.50;99.90;;;;;;5036492;28;20404;-73
2022/01/09 01:50:05;;;;;;;0.30;0.30;;;5.60;99.90;;;;;;5037132;28;20029;-73
2022/01/09 01:52:37;;;;;;;0.40;0.40;;;5.60;99.90;;;;;;5035552;28;20029;-73
2022/01/09 01:55:05;;;;;;;1.38;0.30;;;5.60;99.90;;;;;;5037617;28;20021;-73
2022/01/09 01:57:31;;;;;;;0.20;0.20;;;5.70;99.90;;;;;;5037755;28;20025;-74
2022/01/09 01:59:57;;;;;;;0.20;0.20;;;5.60;99.90;;;;;;5037191;28;20025;-72
2022/01/09 02:02:25;;;;;;;0.13;0.13;;;5.70;99.90;;;;;;5037151;28;20056;-73
2022/01/09 02:04:51;;;;;;;0.30;0.30;;;5.60;99.90;;;;;;5037922;28;20058;-73
2022/01/09 02:07:17;;;;;;;0.20;0.20;;;5.60;99.90;;;;;;5038171;28;20022;-73
2022/01/09 02:09:44;;;;;;;0.20;0.20;;;5.60;99.90;;;;;;5037066;28;20336;-74
2022/01/09 02:12:10;;;;;;;0.32;0.20;;;5.60;99.90;;;;;;5035815;28;20056;-72
2022/01/09 02:14:37;;;;;;;0.20;0.20;;;5.70;99.90;;;;;;5038815;28;20147;-73
2022/01/09 02:17:05;;;;;;;0.52;0.20;;;5.70;99.90;;;;;;5036370;28;20030;-73
2022/01/09 02:19:31;;;;;;;0.10;0.10;;;5.70;99.90;;;;;;5035706;28;20485;-73
2022/01/09 02:21:59;;;;;;;0.35;0.30;;;5.60;99.90;;;;;;5036657;28;20029;-73
2022/01/09 02:24:25;;;;;;;0.20;0.20;;;5.60;99.90;;;;;;5036464;28;20057;-73
2022/01/09 02:26:51;;;;;;;0.98;0.20;;;5.50;99.90;;;;;;5034079;28;20473;-73
2022/01/09 02:29:17;;;;;;;0.20;0.20;;;5.50;99.90;;;;;;5036175;28;20060;-73
2022/01/09 02:31:43;;;;;;;0.20;0.20;;;5.50;99.90;;;;;;5039797;28;20029;-72
2022/01/09 02:34:09;;;;;;;0.98;0.20;;;5.60;99.90;;;;;;5040362;28;20036;-73
2022/01/09 02:36:35;;;;;;;0.20;0.20;;;5.50;99.90;;;;;;5039768;28;20087;-73
2022/01/09 02:39:00;;;;;;;0.20;0.20;;;5.50;99.90;;;;;;5037976;28;20124;-73
2022/01/09 02:41:26;;;;;;;0.20;0.20;;;5.60;99.90;;;;;;5034774;28;20029;-74
2022/01/09 02:43:52;;;;;;;0.20;0.20;;;5.50;99.90;;;;;;5033684;28;20021;-74
2022/01/09 02:49:07;;;;;;;0.73;0.20;;;5.60;99.90;;;;;;5064335;22;20052;-77
2022/01/09 02:51:39;;;;;;;;;;;5.50;99.90;;;;;;5014204;28;20026;-77
2022/01/09 02:55:05;;;;;;;0.40;0.40;;;5.40;99.90;;;;;;5019830;28;19905;-77
2022/01/09 02:56:53;;;;;;;0.10;0.10;;;5.30;99.90;;;;;;5023067;28;20502;-77
2022/01/09 02:59:18;;;;;;;0.20;0.20;;;5.20;99.90;;;;;;5035879;28;20038;-79
2022/01/09 03:01:44;;;;;;;0.30;0.30;;;5.20;99.90;;;;;;5016594;28;20482;-78
2022/01/09 03:04:09;;;;;;;0.20;0.20;;;5.20;99.90;;;;;;5017335;28;20461;-78
2022/01/09 03:06:35;;;;;;;0.20;0.20;;;5.30;99.90;;;;;;5031976;28;20076;-77
2022/01/09 03:09:02;;;;;;;0.17;0.17;;;5.30;99.90;;;;;;5016935;28;20080;-77
2022/01/09 03:11:28;;;;;;;0.20;0.20;;;5.30;99.90;;;;;;5015400;28;20026;-77
2022/01/09 03:13:54;;;;;;;0.20;0.20;;;5.30;99.90;;;;;;5017713;28;20029;-77
2022/01/09 03:16:19;;;;;;;0.20;0.20;;;5.40;99.90;;;;;;5019676;28;20026;-78
2022/01/09 03:18:45;;;;;;;0.20;0.20;;;5.60;99.90;;;;;;5021337;28;20076;-77
2022/01/09 03:21:10;;;;;;;0.15;0.15;;;5.50;99.90;;;;;;5021109;28;20416;-78
2022/01/09 03:23:36;;;;;;;0.17;0.17;;;5.50;99.90;;;;;;5031978;28;20049;-78
2022/01/09 03:26:02;;;;;;;0.20;0.20;;;5.50;99.90;;;;;;5015137;28;20058;-76
2022/01/09 03:28:28;;;;;;;0.22;0.22;;;5.60;99.90;;;;;;5014966;28;20052;-77
2022/01/09 03:30:54;;;;;;;0.52;0.38;;;5.50;99.90;;;;;;5029160;28;20026;-77
2022/01/09 03:33:20;;;;;;;0.20;0.20;;;5.50;99.90;;;;;;5032537;28;20059;-76
2022/01/09 03:35:46;;;;;;;0.20;0.20;;;5.50;99.90;;;;;;5017975;28;20489;-77
2022/01/09 03:38:12;;;;;;;0.35;0.20;;;5.60;99.90;;;;;;5021939;28;20044;-78
2022/01/09 03:40:38;;;;;;;0.25;0.25;;;5.60;99.90;;;;;;5022664;28;20420;-77
2022/01/09 03:43:04;;;;;;;0.57;0.40;;;5.60;99.90;;;;;;5018993;28;20367;-77
2022/01/09 03:45:29;;;;;;;0.35;0.35;;;5.70;99.90;;;;;;5015695;28;20025;-78
2022/01/09 03:47:56;;;;;;;0.20;0.20;;;5.60;99.90;;;;;;5030690;28;20038;-78
2022/01/09 03:50:22;;;;;;;0.20;0.20;;;5.60;99.90;;;;;;5015438;28;20101;-77
2022/01/09 03:52:49;;;;;;;0.40;0.30;;;5.50;99.90;;;;;;5015237;28;20033;-78
2022/01/09 03:55:17;;;;;;;0.10;0.10;;;5.60;99.90;;;;;;5014333;28;20025;-76
2022/01/09 03:57:43;;;;;;;0.20;0.20;;;5.60;99.90;;;;;;5014286;28;20018;-79
2022/01/09 04:00:15;;;;;;;1.30;0.20;;;5.50;99.90;;;;;;5014699;28;20101;-79
2022/01/09 04:02:42;;;;;;;0.20;0.20;;;5.50;99.90;;;;;;5025298;28;20032;-78
2022/01/09 04:05:09;;;;;;;0.17;0.17;;;5.60;99.90;;;;;;5050909;28;20017;-77
2022/01/09 04:07:35;;;;;;;0.57;0.30;;;5.60;99.90;;;;;;5035504;28;20034;-77
2022/01/09 04:10:02;;;;;;;0.75;0.22;;;5.60;99.90;;;;;;5033764;28;20014;-76
2022/01/09 04:12:35;;;;;;;1.80;0.43;;;5.50;99.90;;;;;;5031226;28;20047;-76
2022/01/09 04:15:06;;;;;;;0.20;0.20;;;5.50;99.90;;;;;;5014253;28;20032;-78
2022/01/09 04:20:08;;;;;;;0.28;0.28;;;5.50;99.90;;;;;;5014912;28;20033;-77
2022/01/09 04:22:34;;;;;;;0.30;0.30;;;5.50;99.90;;;;;;5013371;28;20044;-79
2022/01/09 04:25:00;;;;;;;0.20;0.20;;;5.50;99.90;;;;;;5028820;28;20481;-78
2022/01/09 04:27:26;;;;;;;0.20;0.20;;;5.50;99.90;;;;;;5014796;28;20076;-79
2022/01/09 04:29:51;;;;;;;0.43;0.25;;;5.40;99.90;;;;;;5015134;28;20076;-78
2022/01/09 04:32:17;;;;;;;0.40;0.20;;;5.40;99.90;;;;;;5030237;28;20375;-76
2022/01/09 04:34:42;;;;;;;0.20;0.20;;;5.40;99.90;;;;;;5016667;28;20037;-77
2022/01/09 04:37:08;;;;;;;0.30;0.30;;;5.40;99.90;;;;;;5032136;28;20026;-77
2022/01/09 04:39:34;;;;;;;0.32;0.20;;;5.50;99.90;;;;;;5017037;28;20084;-77
2022/01/09 04:41:59;;;;;;;0.40;0.20;;;5.50;99.90;;;;;;5017557;28;20025;-78
2022/01/09 04:44:25;;;;;;;0.20;0.20;;;5.50;99.90;;;;;;5024473;28;20025;-77
2022/01/09 04:47:03;;;;;;;0.90;0.32;;;5.60;99.90;;;;;;5037612;28;20089;-78
2022/01/09 04:49:35;;;;;;;0.13;0.13;;;5.60;99.90;;;;;;5036978;28;20034;-77
2022/01/09 04:52:03;;;;;;;0.30;0.20;;;5.60;99.90;;;;;;5018569;28;20144;-77
2022/01/09 04:54:29;;;;;;;0.20;0.20;;;5.50;99.90;;;;;;5017564;28;20029;-77
2022/01/09 04:56:54;;;;;;;2.40;0.32;;;5.40;99.90;;;;;;5017402;28;20025;-77
2022/01/09 04:59:20;;;;;;;0.20;0.20;;;5.40;99.90;;;;;;5017864;28;20113;-78
2022/01/09 05:01:45;;;;;;;0.10;0.10;;;5.30;99.90;;;;;;5017835;28;20080;-78
2022/01/09 05:04:11;;;;;;;0.10;0.10;;;5.20;99.90;;;;;;5017519;28;20462;-77
2022/01/09 05:06:37;;;;;;;0.20;0.20;;;5.10;99.90;;;;;;5018288;28;20025;-78
2022/01/09 05:09:03;;;;;;;0.10;0.10;;;5.10;99.90;;;;;;5018477;28;20022;-78
2022/01/09 05:11:28;;;;;;;0.10;0.10;;;5.00;99.90;;;;;;5017882;28;20032;-78
2022/01/09 05:13:54;;;;;;;0.13;0.13;;;5.00;99.90;;;;;;5032728;28;20041;-78
2022/01/09 05:16:19;;;;;;;0.10;0.10;;;4.90;99.90;;;;;;5017838;28;20034;-78
2022/01/09 05:18:54;;;;;;;1.60;0.20;;;4.90;99.90;;;;;;5016867;28;20053;-78
2022/01/09 05:21:19;;;;;;;0.10;0.10;;;4.90;99.90;;;;;;5032262;28;20026;-78
2022/01/09 05:23:45;;;;;;;0.10;0.10;;;4.80;99.90;;;;;;5024080;28;20022;-78
2022/01/09 05:26:11;;;;;;;0.10;0.10;;;4.80;99.90;;;;;;5032919;28;20668;-78
2022/01/09 05:28:36;;;;;;;0.17;0.17;;;4.80;99.90;;;;;;5018502;28;20032;-78
2022/01/09 05:31:02;;;;;;;1.10;0.10;;;4.80;99.90;;;;;;5020994;28;20061;-78
2022/01/09 05:33:27;;;;;;;0.17;0.17;;;4.80;99.90;;;;;;5020018;28;20409;-79
2022/01/09 05:35:53;;;;;;;0.75;0.30;;;4.70;99.90;;;;;;5016483;28;20052;-78
2022/01/09 05:38:20;;;;;;;0.10;0.10;;;4.70;99.90;;;;;;5016405;28;20029;-78
2022/01/09 05:40:46;;;;;;;0.20;0.20;;;4.60;99.90;;;;;;5015813;28;20026;-77
2022/01/09 05:43:13;;;;;;;0.20;0.20;;;4.60;99.90;;;;;;5031332;28;20048;-79
2022/01/09 05:45:39;;;;;;;0.30;0.20;;;4.60;99.90;;;;;;5031140;28;20076;-77
2022/01/09 05:48:06;;;;;;;0.88;0.10;;;4.60;99.90;;;;;;5035946;28;20102;-78
2022/01/09 05:50:32;;;;;;;0.55;0.35;;;4.60;99.90;;;;;;5032460;28;20100;-77
2022/01/09 05:52:57;;;;;;;0.10;0.10;;;4.50;99.90;;;;;;5016594;28;20026;-78
2022/01/09 05:55:23;;;;;;;0.52;0.22;;;4.50;99.90;;;;;;5018959;28;20029;-77
2022/01/09 05:57:49;;;;;;;0.20;0.20;;;4.40;99.90;;;;;;5023746;28;20072;-77
2022/01/09 06:00:15;;;;;;;1.00;0.35;;;4.40;99.90;;;;;;5018128;28;20068;-77
2022/01/09 06:02:41;;;;;;;0.68;0.35;;;4.40;99.90;;;;;;5035485;28;20022;-78
2022/01/09 06:05:07;;;;;;;4.80;0.50;;;4.40;99.90;;;;;;5024653;28;20029;-77
2022/01/09 06:07:33;;;;;;;0.52;0.20;;;4.40;99.90;;;;;;5036200;28;20092;-77
2022/01/09 06:09:59;;;;;;;0.20;0.20;;;4.40;99.90;;;;;;5017709;28;20482;-76
2022/01/09 06:12:25;;;;;;;1.95;0.40;;;4.50;99.90;;;;;;5020424;28;20034;-77
2022/01/09 06:14:51;;;;;;;0.40;0.20;;;4.40;99.90;;;;;;5020357;28;20029;-76
2022/01/09 06:17:17;;;;;;;1.65;0.30;;;4.40;99.90;;;;;;5018914;28;20049;-77
2022/01/09 06:19:43;;;;;;;0.30;0.30;;;4.40;99.90;;;;;;5022752;28;20037;-76
2022/01/09 06:22:08;;;;;;;1.30;0.50;;;4.40;99.90;;;;;;5039401;28;20093;-77
2022/01/09 06:24:34;;;;;;;1.35;0.40;;;4.40;99.90;;;;;;5034120;28;20025;-77
2022/01/09 06:27:00;;;;;;;0.52;0.40;;;4.30;99.90;;;;;;5032912;28;20026;-77
2022/01/09 06:29:25;;;;;;;2.45;2.25;;;4.40;99.90;;;;;;5021686;28;20375;-78
2022/01/09 06:31:51;;;;;;;0.70;0.30;;;4.30;99.90;;;;;;5021074;28;20033;-79
2022/01/09 06:34:17;;;;;;;2.17;0.57;;;4.40;99.90;;;;;;5030348;28;20026;-77
2022/01/09 06:36:42;;;;;;;0.55;0.38;;;4.50;99.90;;;;;;5015860;28;20030;-77
2022/01/09 06:39:08;;;;;;;1.48;0.50;;;4.50;99.90;;;;;;5031775;28;20061;-77
2022/01/09 06:41:34;;;;;;;0.98;0.73;;;4.50;99.90;;;;;;5015267;28;20026;-77
2022/01/09 06:43:59;;;;;;;0.40;0.30;;;4.40;99.90;;;;;;5016493;28;20022;-78
2022/01/09 06:46:26;;;;;;;4.15;1.70;;;4.40;99.90;;;;;;5024881;28;20298;-78
2022/01/09 06:48:52;;;;;;;0.47;0.30;;;4.50;99.90;;;;;;5033492;28;20038;-78
2022/01/09 06:51:18;;;;;;;0.70;0.30;;;4.50;99.90;;;;;;5032484;28;20125;-78
2022/01/09 06:53:43;;;;;;;0.55;0.30;;;4.40;99.90;;;;;;5019656;28;20033;-78
2022/01/09 06:56:10;;;;;;;0.30;0.20;;;4.40;99.90;;;;;;5020740;28;20034;-77
2022/01/09 06:58:38;;;;;;;1.40;0.95;;;4.40;99.90;;;;;;5023498;28;20433;-76
2022/01/09 07:01:05;;;;;;;5.85;1.45;;;4.40;99.90;;;;;;5015815;28;20046;-77
2022/01/09 07:03:31;;;;;;;1.50;0.35;;;4.40;99.90;;;;;;5030969;28;20100;-77
2022/01/09 07:05:56;;;;;;;0.70;0.30;;;4.30;99.90;;;;;;5015921;28;20022;-76
2022/01/09 07:08:22;;;;;;;0.30;0.30;;;4.30;99.90;;;;;;5030065;28;20338;-77
2022/01/09 07:10:48;;;;;;;0.75;0.30;;;4.30;99.90;;;;;;5014802;28;20148;-77
2022/01/09 07:13:15;;;;;;;1.05;0.93;;;4.30;99.90;;;;;;5030383;28;20030;-79
2022/01/09 07:15:41;;;;;;;2.15;0.50;;;4.20;99.90;;;;;;5014290;28;20033;-77
2022/01/09 07:18:07;;;;;;;1.27;0.52;;;4.20;99.90;;;;;;5014963;28;20481;-77
2022/01/09 07:20:32;;;;;;;0.30;0.30;;;4.20;99.90;;;;;;5014298;28;20435;-77
2022/01/09 07:22:58;;;;;;;1.48;0.52;;;4.20;99.90;;;;;;5016050;28;20026;-77
2022/01/09 07:25:23;;;;;;;2.70;0.65;;;4.30;99.90;;;;;;5019303;28;20082;-76
2022/01/09 07:27:49;;;;;;;2.95;0.43;;;4.30;99.90;;;;;;5036073;28;20018;-78
2022/01/09 07:30:15;;;;;;;3.15;0.80;;;4.40;99.90;;;;;;5024909;28;20069;-79
2022/01/09 07:32:40;;;;;;;2.92;0.65;;;4.50;99.90;;;;;;5015293;28;20331;-77
2022/01/09 07:35:07;;;;;;;2.38;0.68;;;4.50;99.90;;;;;;5016000;28;20049;-77
2022/01/09 07:37:33;;;;;;;1.15;0.60;;;4.50;99.90;;;;;;5017795;28;20026;-77
2022/01/09 07:39:59;;;;;;;1.90;0.65;;;4.50;99.90;;;;;;5030850;28;20120;-77
2022/01/09 07:42:25;;;;;;;2.78;0.88;;;4.50;99.90;;;;;;5015249;28;20026;-77
2022/01/09 07:44:50;;;;;;;6.07;1.10;;;4.50;99.90;;;;;;5014907;28;20076;-77
2022/01/09 07:47:16;;;;;;;4.38;1.00;;;4.60;99.90;;;;;;5031066;28;20113;-79
2022/01/09 07:49:41;;;;;;;2.33;1.00;;;4.60;99.90;;;;;;5035914;28;20029;-76
2022/01/09 07:52:07;;;;;;;3.00;0.93;;;4.50;99.90;;;;;;5015060;28;20033;-77
2022/01/09 07:54:33;;;;;;;2.47;0.70;;;4.50;99.90;;;;;;5015616;28;20068;-78
2022/01/09 07:56:58;;;;;;;7.05;1.20;;;4.50;99.90;;;;;;5015369;28;20025;-77
2022/01/09 07:59:24;;;;;;;2.75;0.80;;;4.50;99.90;;;;;;5013298;28;20486;-78
2022/01/09 08:01:50;;;;;;;4.35;1.70;;;4.60;99.90;;;;;;5014478;28;20460;-78
2022/01/09 08:04:16;;;;;;;4.57;0.85;;;4.60;99.90;;;;;;5018446;28;20022;-78
2022/01/09 08:06:42;;;;;;;1.90;0.80;;;4.60;99.90;;;;;;5016410;28;20068;-78
2022/01/09 08:09:08;;;;;;;3.05;1.10;;;4.50;99.90;;;;;;5013492;28;20058;-77
2022/01/09 08:11:33;;;;;;;4.15;0.82;;;4.60;99.90;;;;;;5029605;28;20033;-78
2022/01/09 08:13:59;;;;;;;4.60;1.35;;;4.60;99.90;;;;;;5015613;28;20036;-77
2022/01/09 08:16:24;;;;;;;3.10;0.88;;;4.60;99.90;;;;;;5030817;28;20030;-77
2022/01/09 08:18:51;;;;;;;5.05;1.13;;;4.60;99.90;;;;;;5015195;28;20022;-78
2022/01/09 08:21:19;;;;;;;5.90;1.50;;;4.70;99.90;;;;;;5015749;28;20022;-77
2022/01/09 08:23:50;;;;;;;3.28;0.95;;;4.60;99.90;;;;;;5029063;28;20018;-76
2022/01/09 08:26:17;;;;;;;3.30;1.63;;;4.60;99.90;;;;;;5013624;28;20026;-78
2022/01/09 08:28:46;;;;;;;3.17;1.13;;;4.70;99.90;;;;;;5015009;28;20089;-77
2022/01/09 08:31:12;;;;;;;4.78;1.33;;;4.80;99.90;;;;;;5013869;28;20026;-77
2022/01/09 08:33:38;;;;;;;6.50;1.00;;;4.70;99.90;;;;;;5013460;28;20056;-77
2022/01/09 08:36:04;;;;;;;5.78;1.20;;;4.70;99.90;;;;;;5014372;28;20478;-77
2022/01/09 08:38:30;;;;;;;4.57;1.10;;;4.70;99.90;;;;;;5015808;28;20034;-76
2022/01/09 08:40:56;;;;;;;5.78;1.10;;;4.70;99.90;;;;;;5052886;28;20044;-77
2022/01/09 08:43:21;;;;;;;4.60;1.30;;;4.80;99.90;;;;;;5027586;28;20033;-78
2022/01/09 08:45:47;;;;;;;4.75;1.33;;;4.80;99.90;;;;;;5036892;28;20026;-77
2022/01/09 08:48:12;;;;;;;6.13;0.80;;;4.80;99.90;;;;;;5039719;23;20042;-73
2022/01/09 08:50:38;;;;;;;4.50;1.98;;;4.80;99.90;;;;;;5012726;28;20040;-72
2022/01/09 08:53:04;;;;;;;3.55;1.48;;;4.80;99.90;;;;;;5012915;28;20022;-73
2022/01/09 08:55:29;;;;;;;3.67;0.95;;;4.90;99.90;;;;;;5012422;28;20030;-71
2022/01/09 08:57:57;;;;;;;4.85;1.10;;;4.90;99.90;;;;;;5012218;28;20074;-73
2022/01/09 09:00:23;;;;;;;4.68;1.83;;;4.90;99.90;;;;;;5013480;28;20081;-72
2022/01/09 09:02:49;;;;;;;2.35;1.33;;;5.00;99.90;;;;;;5030282;28;20121;-73
2022/01/09 09:05:14;;;;;;;4.05;1.23;;;5.00;99.90;;;;;;5014663;28;20056;-74
2022/01/09 09:07:40;;;;;;;4.65;1.70;;;5.10;99.90;;;;;;5014984;28;20054;-73
2022/01/09 09:10:06;;;;;;;2.92;1.08;;;5.10;99.90;;;;;;5014544;28;20128;-73
2022/01/09 09:12:33;;;;;;;5.72;1.00;;;5.30;99.90;;;;;;5014336;28;20366;-74
2022/01/09 09:15:03;;;;;;;6.07;1.55;;;5.30;99.90;;;;;;5015162;28;20494;-73
2022/01/09 09:17:30;;;;;;;3.65;1.50;;;5.30;99.90;;;;;;5015100;28;20036;-73
2022/01/09 09:19:56;;;;;;;3.83;1.05;;;5.40;99.90;;;;;;5017591;28;20080;-74
2022/01/09 09:22:22;;;;;;;6.97;1.38;;;5.30;99.90;;;;;;5018110;28;20101;-74
2022/01/09 09:24:48;;;;;;;6.88;1.90;;;5.30;99.90;;;;;;5032794;28;20029;-73
2022/01/09 09:27:13;;;;;;;4.85;1.38;;;5.30;99.90;;;;;;5018697;28;20026;-73
2022/01/09 09:29:39;;;;;;;5.43;1.75;;;5.20;99.90;;;;;;5017116;28;20104;-74
2022/01/09 09:32:05;;;;;;;4.15;1.13;;;5.10;99.90;;;;;;5018287;28;20030;-74
2022/01/09 09:34:30;;;;;;;13.63;1.13;;;4.90;99.90;;;;;;5018172;28;20048;-73
2022/01/09 09:36:56;;;;;;;3.47;1.27;;;4.80;99.90;;;;;;5018182;28;20101;-73
2022/01/09 09:39:21;;;;;;;5.13;1.30;;;4.60;99.90;;;;;;5018236;28;20026;-73
2022/01/09 09:41:48;;;;;;;6.50;1.55;;;4.60;99.90;;;;;;5017680;28;20558;-74
2022/01/09 09:44:13;;;;;;;6.55;1.40;;;4.60;99.90;;;;;;5017615;28;20367;-73
2022/01/09 09:46:39;;;;;;;9.38;1.55;;;4.70;99.90;;;;;;5017734;28;20033;-73
2022/01/09 09:49:05;;;;;;;5.45;1.55;;;4.80;99.90;;;;;;5033258;28;20037;-73
2022/01/09 09:51:31;;;;;;;2.97;1.42;;;4.90;99.90;;;;;;5018008;28;20026;-73
2022/01/09 09:53:57;;;;;;;8.40;1.83;;;5.00;99.90;;;;;;5018213;28;20109;-73
2022/01/09 09:56:23;;;;;;;6.60;1.20;;;5.00;99.90;;;;;;5017487;28;20060;-73
2022/01/09 09:58:50;;;;;;;7.80;2.58;;;5.20;99.90;;;;;;5017500;28;20030;-73
2022/01/09 10:01:27;;;;;;;5.00;1.45;;;5.20;99.90;;;;;;5016350;28;20058;-73
2022/01/09 10:04:07;;;;;;;2.50;1.00;;;5.30;99.90;;;;;;5036739;28;20026;-73
2022/01/09 10:06:40;;;;;;;6.18;1.13;;;5.40;99.90;;;;;;5050087;28;20026;-73
2022/01/09 10:09:12;;;;;;;6.15;1.60;;;5.50;99.90;;;;;;5032911;28;20022;-73
2022/01/09 10:11:51;;;;;;;4.80;1.10;;;5.50;99.90;;;;;;5035456;28;20037;-73
2022/01/09 10:14:25;;;;;;;7.32;1.63;;;5.60;99.90;;;;;;5031383;28;20026;-72
2022/01/09 10:17:18;;;;;;;8.90;2.90;;;5.60;99.90;;;;;;5031388;28;20057;-72
2022/01/09 10:19:50;;;;;;;8.65;1.92;;;5.70;99.90;;;;;;5026616;28;20048;-74
2022/01/09 10:22:44;;;;;;;3.83;1.02;;;5.60;99.90;;;;;;5041393;28;20048;-73
2022/01/09 10:25:32;;;;;;;4.38;1.63;;;5.50;99.90;;;;;;5018062;28;20032;-72
2022/01/09 10:28:16;;;;;;;4.03;1.23;;;5.60;99.90;;;;;;5017177;28;20033;-73
2022/01/09 10:30:51;;;;;;;4.78;1.63;;;5.40;99.90;;;;;;5015299;28;20041;-73
2022/01/09 10:33:20;;;;;;;5.07;0.95;;;5.50;99.90;;;;;;5018658;28;20022;-73
2022/01/09 10:35:47;;;;;;;7.70;2.05;;;5.40;99.90;;;;;;5021663;28;20077;-72
2022/01/09 10:38:19;;;;;;;5.82;1.25;;;5.50;99.90;;;;;;5031727;28;20026;-73
2022/01/09 10:40:54;;;;;;;4.68;1.17;;;5.60;99.90;;;;;;5017806;28;20161;-74
2022/01/09 10:43:22;;;;;;;3.00;1.20;;;5.70;99.90;;;;;;5021159;28;20037;-74
2022/01/09 10:45:59;;;;;;;5.22;1.38;;;5.60;99.90;;;;;;5020214;28;20136;-73
2022/01/09 10:48:32;;;;;;;8.98;1.23;;;5.50;99.90;;;;;;5016558;28;20064;-73
2022/01/09 10:50:58;;;;;;;4.50;1.38;;;5.50;99.90;;;;;;5016883;28;20076;-73
2022/01/09 10:53:30;;;;;;;4.40;0.98;;;5.70;99.90;;;;;;5016706;28;20029;-73
2022/01/09 10:56:06;;;;;;;7.35;1.38;;;5.70;99.90;;;;;;5016374;28;20026;-74
2022/01/09 10:58:35;;;;;;;5.95;1.45;;;5.70;99.90;;;;;;5015885;28;20041;-73
2022/01/09 11:01:11;;;;;;;6.07;1.05;;;5.80;99.90;;;;;;5015601;28;20117;-73
2022/01/09 11:03:39;;;;;;;6.15;1.20;;;5.70;99.90;;;;;;5016058;28;20105;-73
2022/01/09 11:06:06;;;;;;;5.20;1.30;;;5.60;99.90;;;;;;5015671;28;20058;-73
2022/01/09 11:08:35;;;;;;;7.45;2.58;;;5.70;99.90;;;;;;5015864;28;20169;-74
2022/01/09 11:11:02;;;;;;;3.38;1.10;;;5.80;99.90;;;;;;5014879;28;20069;-74
2022/01/09 11:13:28;;;;;;;4.85;1.58;;;5.90;99.90;;;;;;5030979;28;20092;-75
2022/01/09 11:18:42;;;;;;;3.78;1.25;;;6.10;99.90;;;;;;5015673;28;20101;-73
2022/01/09 11:21:08;;;;;;;5.82;1.45;;;6.10;99.90;;;;;;5015624;28;20065;-74
2022/01/09 11:23:57;;;;;;;7.15;2.20;;;6.10;99.90;;;;;;5015665;28;20052;-73
2022/01/09 11:26:43;;;;;;;9.07;1.50;;;6.10;99.90;;;;;;5015622;28;20022;-73
2022/01/09 11:29:13;;;;;;;5.63;1.27;;;6.10;99.90;;;;;;5018033;28;20052;-74
2022/01/09 11:32:02;;;;;;;3.42;0.80;;;6.10;99.90;;;;;;5016372;28;20049;-75
2022/01/09 11:34:49;;;;;;;4.15;0.98;;;6.00;99.90;;;;;;5032059;28;20022;-74
2022/01/09 11:37:27;;;;;;;5.25;1.30;;;6.20;99.90;;;;;;5016752;28;20061;-73
2022/01/09 11:39:53;;;;;;;4.70;0.90;;;6.20;99.90;;;;;;5016424;28;20041;-74
2022/01/09 11:42:19;;;;;;;3.15;1.20;;;6.30;99.90;;;;;;5014998;28;20037;-74
2022/01/09 11:44:52;;;;;;;5.45;0.90;;;6.40;99.90;;;;;;5016180;28;20030;-76
2022/01/09 11:47:19;;;;;;;4.05;1.38;;;6.40;99.90;;;;;;5030393;28;20026;-73
2022/01/09 11:49:52;;;;;;;4.72;1.08;;;6.50;99.90;;;;;;5015043;28;20106;-75
2022/01/09 11:52:19;;;;;;;4.70;1.35;;;6.60;99.90;;;;;;5030119;28;20101;-74
2022/01/09 11:54:52;;;;;;;3.90;1.05;;;6.60;99.90;;;;;;5014611;28;20028;-74
2022/01/09 11:57:45;;;;;;;5.50;1.30;;;6.70;99.90;;;;;;5014377;28;20030;-73
2022/01/09 12:00:30;;;;;;;6.32;1.50;;;7.00;99.90;;;;;;5013975;28;20397;-74
2022/01/09 12:02:57;;;;;;;4.10;1.00;;;7.10;99.90;;;;;;5014497;28;20032;-74
2022/01/09 12:05:22;;;;;;;4.82;1.30;;;7.10;99.90;;;;;;5029499;28;20022;-73
2022/01/09 12:07:48;;;;;;;4.45;0.90;;;7.20;99.90;;;;;;5014695;28;20022;-74
2022/01/09 12:10:27;;;;;;;2.95;1.30;;;7.30;99.90;;;;;;5030079;28;20053;-74
2022/01/09 12:12:53;;;;;;;4.70;1.23;;;7.10;99.90;;;;;;5014808;28;20026;-74
2022/01/09 12:15:42;;;;;;;3.05;1.80;;;7.10;99.90;;;;;;5014795;28;20084;-74
2022/01/09 12:18:39;;;;;;;2.30;1.00;;;7.10;99.90;;;;;;5014876;28;20667;-74
2022/01/09 12:21:04;;;;;;;6.15;1.30;;;7.10;99.90;;;;;;5015083;28;20037;-74
2022/01/09 12:23:30;;;;;;;2.05;0.75;;;7.00;99.90;;;;;;5014865;28;20033;-74
2022/01/09 12:25:55;;;;;;;3.95;1.25;;;7.00;99.90;;;;;;5014763;28;20097;-75
2022/01/09 12:28:34;;;;;;;5.60;2.20;;;7.10;99.90;;;;;;5029430;28;20026;-74
2022/01/09 12:31:00;;;;;;;1.85;1.15;;;7.20;99.90;;;;;;5031465;28;20033;-74
2022/01/09 12:33:27;;;;;;;5.00;1.55;;;7.30;99.90;;;;;;5032161;28;20022;-75
2022/01/09 12:36:04;;;;;;;4.50;1.48;;;7.30;99.90;;;;;;5015092;28;20018;-74
2022/01/09 12:38:33;;;;;;;2.95;0.95;;;7.10;99.90;;;;;;5016405;28;20084;-74
2022/01/09 12:41:04;;;;;;;2.70;0.93;;;7.10;99.90;;;;;;5016694;28;20062;-73
2022/01/09 12:43:31;;;;;;;6.47;1.90;;;6.90;99.90;;;;;;5021564;28;20033;-76
2022/01/09 12:45:57;;;;;;;5.53;2.13;;;6.70;99.90;;;;;;5015556;28;20057;-75
2022/01/09 12:48:25;;;;;;;2.90;1.30;;;6.60;99.90;;;;;;5015082;28;20120;-74
2022/01/09 12:50:51;;;;;;;4.40;1.23;;;6.50;99.90;;;;;;5014904;28;20050;-73
2022/01/09 12:53:23;;;;;;;5.30;1.13;;;6.50;99.90;;;;;;5015965;28;20078;-73
2022/01/09 12:56:03;;;;;;;3.28;1.38;;;6.60;99.90;;;;;;5018826;28;20022;-74
2022/01/09 12:58:30;;;;;;;8.10;3.00;;;6.60;99.90;;;;;;5018216;28;20097;-74
2022/01/09 13:00:57;;;;;;;2.88;0.90;;;6.50;99.90;;;;;;5019134;28;20355;-74
2022/01/09 13:03:31;;;;;;;9.15;2.83;;;6.40;99.90;;;;;;5018994;28;20022;-72
2022/01/09 13:05:58;;;;;;;1.77;1.10;;;6.50;99.90;;;;;;5018976;28;20077;-74
2022/01/09 13:08:25;;;;;;;4.75;1.30;;;6.40;99.90;;;;;;5017717;28;20097;-73